Winterswijk, Netherlands
Current Conditions -  °F | °C
As of 7:20 PM on Thursday 27 Nov 2014 (Local Time) from EDLV Reporting Station
Light Rain Light Rain  
Wind Chill: 40°   Ceiling: Unl
Heat Index: 45°   Visibility: 5mi
Dew Point: 45°   Wind: 9mph
Humidity: 100%   Direction: 120°ESE
Pressure: 29.74"   Gusts: NA
Location:  51.97°N, 6.72°E
Report Text: EDLV 271820Z 12008KT 8000 -RA SCT040 07/07 Q1007
Loading
Personal Weather Stations






























Interactive Weather Map New forecast layout! Learn more

10-Day Weather Forecast

Advertisements
Track Severe Weather on mobile